Stockton, Georgia
Current Conditions -  °F | °C
As of 9:58 AM on Monday 24 Nov 2014 (Local Time) from KVAD Reporting Station
Overcast Overcast  
Wind Chill: 74°   Ceiling: 1000
Heat Index: 74°   Visibility: 10mi
Dew Point: 71°   Wind: 13mph
Humidity: 90%   Direction: 200°SSW
Pressure: 29.89"   Gusts: NA
Location:  30.94°N, 83°W
Report Text: KVAD 241458Z AUTO 20011KT 10SM OVC010 24/22 A2989 RMK AO2 SLP123 T02350218 52016 $
Loading
Personal Weather Stations






























Interactive Weather Map New forecast layout! Learn more

10-Day Weather Forecast

Advertisements
Track Severe Weather on mobile